createdAt,value
2023-05-17T00:00:18.130Z,10.70
2023-05-17T00:02:44.874Z,10.70
2023-05-17T00:05:11.780Z,10.70
2023-05-17T00:07:41.191Z,10.70
2023-05-17T00:10:08.374Z,10.60
2023-05-17T00:12:35.051Z,10.60
2023-05-17T00:15:01.793Z,10.60
2023-05-17T00:17:28.619Z,10.60
2023-05-17T00:19:55.433Z,10.50
2023-05-17T00:22:25.401Z,10.50
2023-05-17T00:24:52.098Z,10.50
2023-05-17T00:27:18.811Z,10.50
2023-05-17T00:29:47.693Z,10.50
2023-05-17T00:32:14.413Z,10.50
2023-05-17T00:34:41.226Z,10.50
2023-05-17T00:37:08.055Z,10.40
2023-05-17T00:39:34.901Z,10.40
2023-05-17T00:42:01.877Z,10.40
2023-05-17T00:44:30.770Z,10.40
2023-05-17T00:46:59.827Z,10.40
2023-05-17T00:49:27.568Z,10.40
2023-05-17T00:51:54.849Z,10.30
2023-05-17T00:54:22.727Z,10.30
2023-05-17T00:56:50.026Z,10.30
2023-05-17T00:59:21.100Z,10.30
2023-05-17T01:01:48.212Z,10.30
2023-05-17T01:04:14.931Z,10.20
2023-05-17T01:06:41.814Z,10.20
2023-05-17T01:09:09.097Z,10.20
2023-05-17T01:12:22.169Z,10.20
2023-05-17T01:15:15.361Z,10.10
2023-05-17T01:18:09.520Z,10.10
2023-05-17T01:20:38.950Z,10.10
2023-05-17T01:23:36.648Z,10.10
2023-05-17T01:26:18.052Z,10.10
2023-05-17T01:28:49.515Z,10.00
2023-05-17T01:31:17.224Z,10.00
2023-05-17T01:33:44.289Z,10.00
2023-05-17T01:36:13.893Z,10.00
2023-05-17T01:38:42.832Z,9.90
2023-05-17T01:41:34.284Z,9.90
2023-05-17T01:44:28.578Z,9.80
2023-05-17T01:47:04.996Z,9.80
2023-05-17T01:49:35.197Z,9.80
2023-05-17T01:52:35.230Z,9.80
2023-05-17T01:55:10.600Z,9.80
2023-05-17T01:57:37.941Z,9.80
2023-05-17T02:00:12.363Z,9.80
2023-05-17T02:02:39.112Z,9.80
2023-05-17T02:05:06.297Z,9.80
2023-05-17T02:07:35.239Z,9.70
2023-05-17T02:10:02.165Z,9.70
2023-05-17T02:12:28.919Z,9.70
2023-05-17T02:14:55.605Z,9.80
2023-05-17T02:17:22.901Z,9.80
2023-05-17T02:19:51.942Z,9.80
2023-05-17T02:22:18.756Z,9.80
2023-05-17T02:24:46.751Z,9.80
2023-05-17T02:27:15.665Z,9.80
2023-05-17T02:29:42.706Z,9.90
2023-05-17T02:32:09.419Z,9.90
2023-05-17T02:34:36.096Z,9.90
2023-05-17T02:37:02.802Z,9.80
2023-05-17T02:39:29.536Z,9.80
2023-05-17T02:41:56.163Z,9.80
2023-05-17T02:44:25.427Z,9.80
2023-05-17T02:46:52.104Z,9.80
2023-05-17T02:49:19.159Z,9.80
2023-05-17T02:51:48.379Z,9.80
2023-05-17T02:54:15.049Z,9.80
2023-05-17T02:56:41.720Z,9.80
2023-05-17T02:59:08.692Z,9.80
2023-05-17T03:01:36.066Z,9.80
2023-05-17T03:04:03.003Z,9.80
2023-05-17T03:06:32.580Z,9.80
2023-05-17T03:08:59.345Z,9.80
2023-05-17T03:11:26.374Z,9.80
2023-05-17T03:13:53.036Z,9.70
2023-05-17T03:16:19.866Z,9.70
2023-05-17T03:18:46.694Z,9.70
2023-05-17T03:21:15.915Z,9.70
2023-05-17T03:23:42.632Z,9.70
2023-05-17T03:26:09.316Z,9.60
2023-05-17T03:28:36.040Z,9.60
2023-05-17T03:31:02.845Z,9.60
2023-05-17T03:33:29.730Z,9.60
2023-05-17T03:35:56.527Z,9.50
2023-05-17T03:38:23.407Z,9.50
2023-05-17T03:40:54.805Z,9.50
2023-05-17T03:43:23.761Z,9.50
2023-05-17T03:45:50.493Z,9.50
2023-05-17T03:48:17.246Z,9.50
2023-05-17T03:50:43.936Z,9.50
2023-05-17T03:53:10.819Z,9.50
2023-05-17T03:55:37.596Z,9.40
2023-05-17T03:58:04.294Z,9.50
2023-05-17T04:00:30.997Z,9.50
2023-05-17T04:03:00.704Z,9.50
2023-05-17T04:05:27.708Z,9.50
2023-05-17T04:07:54.725Z,9.50
2023-05-17T04:10:23.543Z,9.50
2023-05-17T04:12:50.233Z,9.50
2023-05-17T04:15:16.937Z,9.50
2023-05-17T04:17:43.737Z,9.50
2023-05-17T04:20:13.561Z,9.50
2023-05-17T04:22:40.300Z,9.50
2023-05-17T04:25:08.240Z,9.50
2023-05-17T04:27:34.985Z,9.50
2023-05-17T04:30:02.329Z,9.50
2023-05-17T04:32:52.186Z,9.50
2023-05-17T04:35:32.908Z,9.60
2023-05-17T04:37:59.812Z,9.60
2023-05-17T04:40:26.557Z,9.70
2023-05-17T04:42:53.319Z,9.70
2023-05-17T04:45:24.779Z,9.80
2023-05-17T04:47:52.910Z,9.80
2023-05-17T04:50:20.009Z,9.90
2023-05-17T04:52:47.549Z,9.90
2023-05-17T04:55:14.364Z,10.00
2023-05-17T04:57:43.335Z,10.00
2023-05-17T05:00:10.622Z,10.00
2023-05-17T05:02:38.230Z,10.10
2023-05-17T05:05:10.794Z,10.10
2023-05-17T05:07:39.752Z,10.20
2023-05-17T05:10:07.362Z,10.20
2023-05-17T05:12:34.227Z,10.20
2023-05-17T05:15:01.321Z,10.30
2023-05-17T05:17:31.002Z,10.30
2023-05-17T05:19:58.021Z,10.40
2023-05-17T05:22:25.764Z,10.40
2023-05-17T05:24:52.726Z,10.40
2023-05-17T05:27:24.246Z,10.50
2023-05-17T05:29:51.020Z,10.50
2023-05-17T05:32:20.042Z,10.60
2023-05-17T05:34:46.862Z,10.60
2023-05-17T05:37:17.240Z,10.70
2023-05-17T05:39:48.795Z,10.70
2023-05-17T05:42:15.662Z,10.80
2023-05-17T05:44:44.525Z,10.80
2023-05-17T05:47:11.265Z,10.90
2023-05-17T05:49:37.991Z,10.90
2023-05-17T05:52:04.846Z,10.90
2023-05-17T05:54:31.535Z,11.00
2023-05-17T05:56:59.283Z,11.10
2023-05-17T05:59:26.030Z,11.10
2023-05-17T06:01:52.850Z,11.20
2023-05-17T06:04:22.691Z,11.20
2023-05-17T06:06:54.923Z,11.30
2023-05-17T06:09:24.910Z,11.30
2023-05-17T06:11:53.808Z,11.30
2023-05-17T06:14:20.757Z,11.40
2023-05-17T06:16:48.578Z,11.50
2023-05-17T06:19:18.259Z,11.60
2023-05-17T06:21:45.042Z,11.70
2023-05-17T06:24:16.867Z,11.80
2023-05-17T06:26:49.739Z,11.90
2023-05-17T06:29:16.386Z,11.90
2023-05-17T06:31:43.316Z,12.00
2023-05-17T06:34:10.108Z,12.00
2023-05-17T06:36:38.589Z,12.10
2023-05-17T06:39:05.829Z,12.20
2023-05-17T06:41:35.014Z,12.30
2023-05-17T06:44:01.810Z,12.30
2023-05-17T06:46:28.530Z,12.40
2023-05-17T06:48:55.525Z,12.50
2023-05-17T06:51:24.516Z,12.60
2023-05-17T06:53:51.462Z,12.60
2023-05-17T06:56:18.181Z,12.70
2023-05-17T06:58:47.449Z,12.80
2023-05-17T07:01:14.365Z,12.90
2023-05-17T07:03:41.213Z,12.80
2023-05-17T07:06:10.700Z,12.90
2023-05-17T07:08:37.344Z,13.00
2023-05-17T07:11:06.325Z,13.00
2023-05-17T07:13:33.174Z,13.10
2023-05-17T07:16:00.676Z,13.20
2023-05-17T07:18:27.457Z,13.30
2023-05-17T07:20:54.272Z,13.40
2023-05-17T07:23:21.015Z,13.40
2023-05-17T07:25:47.841Z,13.50
2023-05-17T07:28:14.654Z,13.60
2023-05-17T07:30:42.397Z,13.70
2023-05-17T07:33:11.606Z,13.60
2023-05-17T07:35:38.445Z,13.70
2023-05-17T07:38:05.366Z,13.80
2023-05-17T07:40:32.204Z,13.90
2023-05-17T07:42:58.923Z,14.00
2023-05-17T07:45:26.028Z,14.00
2023-05-17T07:47:55.176Z,14.00
2023-05-17T07:50:24.656Z,14.10
2023-05-17T07:52:51.898Z,14.10
2023-05-17T07:55:19.944Z,14.30
2023-05-17T07:57:47.729Z,14.40
2023-05-17T08:00:19.422Z,14.40
2023-05-17T08:02:46.590Z,14.50
2023-05-17T08:05:13.485Z,14.60
2023-05-17T08:07:40.417Z,14.60
2023-05-17T08:10:07.590Z,14.80
2023-05-17T08:12:34.626Z,14.90
2023-05-17T08:15:01.420Z,15.00
2023-05-17T08:17:28.220Z,15.10
2023-05-17T08:19:55.027Z,15.20
2023-05-17T08:22:23.945Z,15.40
2023-05-17T08:24:51.381Z,15.50
2023-05-17T08:27:18.322Z,15.50
2023-05-17T08:29:47.432Z,15.60
2023-05-17T08:32:16.288Z,15.70
2023-05-17T08:34:43.032Z,15.60
2023-05-17T08:37:10.292Z,15.60
2023-05-17T08:39:39.685Z,15.50
2023-05-17T08:42:09.862Z,15.40
2023-05-17T08:44:36.685Z,15.40
2023-05-17T08:47:04.176Z,15.20
2023-05-17T08:49:34.577Z,15.30
2023-05-17T08:52:03.346Z,15.40
2023-05-17T08:54:30.127Z,15.50
2023-05-17T08:57:00.752Z,15.60
2023-05-17T08:59:33.844Z,15.60
2023-05-17T09:02:01.216Z,15.70
2023-05-17T09:04:30.200Z,15.80
2023-05-17T09:06:57.124Z,15.60
2023-05-17T09:09:24.477Z,15.50
2023-05-17T09:11:51.455Z,15.40
2023-05-17T09:14:18.724Z,15.50
2023-05-17T09:16:45.752Z,15.60
2023-05-17T09:19:18.073Z,15.60
2023-05-17T09:21:47.919Z,15.40
2023-05-17T09:24:15.009Z,15.40
2023-05-17T09:26:43.855Z,15.40
2023-05-17T09:29:11.812Z,15.40
2023-05-17T09:31:41.812Z,15.50
2023-05-17T09:34:11.236Z,15.60
2023-05-17T09:36:39.137Z,15.60
2023-05-17T09:39:08.120Z,15.40
2023-05-17T09:41:46.726Z,15.40
2023-05-17T09:44:14.719Z,15.30
2023-05-17T09:46:46.179Z,15.20
2023-05-17T09:49:13.816Z,15.10
2023-05-17T09:51:42.706Z,15.10
2023-05-17T09:54:13.292Z,15.00
2023-05-17T09:56:40.500Z,15.10
2023-05-17T09:59:30.528Z,15.30
2023-05-17T10:01:59.475Z,15.40
2023-05-17T10:04:30.703Z,15.50
2023-05-17T10:07:00.189Z,15.60
2023-05-17T10:09:27.176Z,15.70
2023-05-17T10:11:56.525Z,15.70
2023-05-17T10:14:33.736Z,15.60
2023-05-17T10:17:03.950Z,15.60
2023-05-17T10:19:31.286Z,15.20
2023-05-17T10:22:08.211Z,15.20
2023-05-17T10:24:51.167Z,15.20
2023-05-17T10:27:18.094Z,15.30
2023-05-17T10:29:47.646Z,15.50
2023-05-17T10:32:19.086Z,15.80
2023-05-17T10:34:57.656Z,16.20
2023-05-17T10:37:34.262Z,16.30
2023-05-17T10:40:03.473Z,16.50
2023-05-17T10:42:39.557Z,16.60
2023-05-17T10:45:19.868Z,16.60
2023-05-17T10:47:46.812Z,16.80
2023-05-17T10:50:14.861Z,16.90
2023-05-17T10:52:49.773Z,17.00
2023-05-17T10:55:25.064Z,17.10
2023-05-17T10:58:18.008Z,17.10
2023-05-17T11:00:50.985Z,17.10
2023-05-17T11:03:29.171Z,17.20
2023-05-17T11:06:23.999Z,17.10
2023-05-17T11:09:09.678Z,16.90
2023-05-17T11:11:36.705Z,17.00
2023-05-17T11:14:04.782Z,17.10
2023-05-17T11:16:36.346Z,17.10
2023-05-17T11:19:11.777Z,17.30
2023-05-17T11:21:50.936Z,17.40
2023-05-17T11:24:27.249Z,17.60
2023-05-17T11:26:55.613Z,17.70
2023-05-17T11:29:29.846Z,17.60
2023-05-17T11:31:56.643Z,17.70
2023-05-17T11:34:25.594Z,17.80
2023-05-17T11:36:54.660Z,17.80
2023-05-17T11:39:23.615Z,17.90
2023-05-17T11:41:57.336Z,17.90
2023-05-17T11:44:28.810Z,17.80
2023-05-17T11:47:08.737Z,17.70
2023-05-17T11:49:38.896Z,17.70
2023-05-17T11:52:08.827Z,17.50
2023-05-17T11:54:37.718Z,17.50
2023-05-17T11:57:05.693Z,17.30
2023-05-17T11:59:41.043Z,17.20
2023-05-17T12:02:10.004Z,17.20
2023-05-17T12:04:40.693Z,17.20
2023-05-17T12:07:14.084Z,17.10
2023-05-17T12:09:44.546Z,17.20
2023-05-17T12:12:12.150Z,17.30
2023-05-17T12:14:38.895Z,17.50
2023-05-17T12:17:12.036Z,17.80
2023-05-17T12:19:42.088Z,18.10
2023-05-17T12:22:13.841Z,18.20
2023-05-17T12:24:42.679Z,18.20
2023-05-17T12:27:10.560Z,18.30
2023-05-17T12:29:38.175Z,18.50
2023-05-17T12:32:07.198Z,18.80
2023-05-17T12:34:34.227Z,19.00
2023-05-17T12:37:01.255Z,19.10
2023-05-17T12:39:28.100Z,19.30
2023-05-17T12:41:55.341Z,19.30
2023-05-17T12:44:22.432Z,19.40
2023-05-17T12:46:57.551Z,19.50
2023-05-17T12:49:26.635Z,19.70
2023-05-17T12:51:53.501Z,19.80
2023-05-17T12:54:29.322Z,19.50
2023-05-17T12:56:58.799Z,19.30
2023-05-17T12:59:26.058Z,19.30
2023-05-17T13:01:55.760Z,19.30
2023-05-17T13:04:34.308Z,19.50
2023-05-17T13:07:03.423Z,19.50
2023-05-17T13:09:32.150Z,19.40
2023-05-17T13:12:08.206Z,18.90
2023-05-17T13:14:45.329Z,18.90
2023-05-17T13:17:23.923Z,19.10
2023-05-17T13:19:51.213Z,19.10
2023-05-17T13:22:18.012Z,19.20
2023-05-17T13:24:45.259Z,19.20
2023-05-17T13:27:14.602Z,19.40
2023-05-17T13:29:43.040Z,19.60
2023-05-17T13:32:13.759Z,19.80
2023-05-17T13:34:43.698Z,19.90
2023-05-17T13:37:12.493Z,19.50
2023-05-17T13:39:41.583Z,19.70
2023-05-17T13:42:09.664Z,19.80
2023-05-17T13:44:38.184Z,19.80
2023-05-17T13:47:05.292Z,19.80
2023-05-17T13:49:32.673Z,19.80
2023-05-17T13:52:00.678Z,19.80
2023-05-17T13:54:28.344Z,19.90
2023-05-17T13:56:55.762Z,20.10
2023-05-17T13:59:22.546Z,20.40
2023-05-17T14:01:49.639Z,20.20
2023-05-17T14:04:19.917Z,20.40
2023-05-17T14:06:48.911Z,20.50
2023-05-17T14:09:16.397Z,20.70
2023-05-17T14:11:43.595Z,20.80
2023-05-17T14:14:11.114Z,20.90
2023-05-17T14:16:37.976Z,20.90
2023-05-17T14:19:05.145Z,20.90
2023-05-17T14:21:32.671Z,21.00
2023-05-17T14:23:59.400Z,21.20
2023-05-17T14:26:26.730Z,21.20
2023-05-17T14:28:53.685Z,21.30
2023-05-17T14:31:20.817Z,21.30
2023-05-17T14:33:47.591Z,21.30
2023-05-17T14:36:14.483Z,21.30
2023-05-17T14:38:41.184Z,21.30
2023-05-17T14:41:08.140Z,21.30
2023-05-17T14:43:34.983Z,21.10
2023-05-17T14:46:01.756Z,21.10
2023-05-17T14:48:28.524Z,21.00
2023-05-17T14:50:57.814Z,21.10
2023-05-17T14:53:29.026Z,21.10
2023-05-17T14:55:57.456Z,21.00
2023-05-17T14:58:24.352Z,20.90
2023-05-17T15:01:05.476Z,20.90
2023-05-17T15:03:33.608Z,21.00
2023-05-17T15:06:06.859Z,20.90
2023-05-17T15:08:34.806Z,20.90
2023-05-17T15:11:03.899Z,20.80
2023-05-17T15:13:30.865Z,20.70
2023-05-17T15:16:09.798Z,20.50
2023-05-17T15:18:39.053Z,20.50
2023-05-17T15:21:05.896Z,20.60
2023-05-17T15:23:32.692Z,20.70
2023-05-17T15:25:59.448Z,20.70
2023-05-17T15:28:26.379Z,20.70
2023-05-17T15:31:03.559Z,20.70
2023-05-17T15:33:31.006Z,20.80
2023-05-17T15:35:58.426Z,20.80
2023-05-17T15:38:25.145Z,20.80
2023-05-17T15:41:05.920Z,20.90
2023-05-17T15:43:34.228Z,21.00
2023-05-17T15:46:01.357Z,21.00
2023-05-17T15:48:29.247Z,21.00
2023-05-17T15:50:56.504Z,21.00
2023-05-17T15:53:27.041Z,21.00
2023-05-17T15:55:56.193Z,21.00
2023-05-17T15:58:27.692Z,21.10
2023-05-17T16:00:55.110Z,21.10
2023-05-17T16:03:21.879Z,21.10
2023-05-17T16:05:51.569Z,21.10
2023-05-17T16:08:20.195Z,21.10
2023-05-17T16:10:47.415Z,21.20
2023-05-17T16:13:16.641Z,21.10
2023-05-17T16:15:43.490Z,21.00
2023-05-17T16:18:10.890Z,21.00
2023-05-17T16:20:37.934Z,20.90
2023-05-17T16:23:05.968Z,20.80
2023-05-17T16:25:32.862Z,20.70
2023-05-17T16:28:02.355Z,20.60
2023-05-17T16:30:29.181Z,20.60
2023-05-17T16:32:56.479Z,20.60
2023-05-17T16:35:23.292Z,20.50
2023-05-17T16:37:52.989Z,20.30
2023-05-17T16:40:19.870Z,20.20
2023-05-17T16:42:46.663Z,20.00
2023-05-17T16:45:15.830Z,20.00
2023-05-17T16:47:42.785Z,19.90
2023-05-17T16:50:10.820Z,19.80
2023-05-17T16:52:39.953Z,19.70
2023-05-17T16:55:07.566Z,19.70
2023-05-17T16:57:34.280Z,19.70
2023-05-17T17:00:01.555Z,19.80
2023-05-17T17:02:28.869Z,19.80
2023-05-17T17:04:55.851Z,19.90
2023-05-17T17:07:22.595Z,20.00
2023-05-17T17:09:56.668Z,20.00
2023-05-17T17:12:24.544Z,20.10
2023-05-17T17:14:53.551Z,20.10
2023-05-17T17:17:22.821Z,20.10
2023-05-17T17:19:49.566Z,20.10
2023-05-17T17:22:16.699Z,20.10
2023-05-17T17:24:44.441Z,20.10
2023-05-17T17:27:14.722Z,20.10
2023-05-17T17:29:43.955Z,20.10
2023-05-17T17:32:13.524Z,20.10
2023-05-17T17:34:40.407Z,20.10
2023-05-17T17:37:07.050Z,20.20
2023-05-17T17:39:36.264Z,20.20
2023-05-17T17:42:06.015Z,20.10
2023-05-17T17:44:32.781Z,20.10
2023-05-17T17:46:59.515Z,19.90
2023-05-17T17:49:29.956Z,19.80
2023-05-17T17:51:58.844Z,19.70
2023-05-17T17:54:25.505Z,19.60
2023-05-17T17:56:52.305Z,19.60
2023-05-17T17:59:21.559Z,19.50
2023-05-17T18:01:48.448Z,19.60
2023-05-17T18:04:17.538Z,19.80
2023-05-17T18:06:45.887Z,19.80
2023-05-17T18:09:12.815Z,19.90
2023-05-17T18:11:41.750Z,19.90
2023-05-17T18:14:08.596Z,19.60
2023-05-17T18:16:35.411Z,19.40
2023-05-17T18:19:02.565Z,19.20
2023-05-17T18:21:31.906Z,18.80
2023-05-17T18:23:58.745Z,18.50
2023-05-17T18:26:25.910Z,18.30
2023-05-17T18:28:52.704Z,18.10
2023-05-17T18:31:19.431Z,17.90
2023-05-17T18:33:46.237Z,17.80
2023-05-17T18:36:13.359Z,17.60
2023-05-17T18:38:40.322Z,17.50
2023-05-17T18:41:09.371Z,17.30
2023-05-17T18:43:36.046Z,17.20
2023-05-17T18:46:02.958Z,17.10
2023-05-17T18:48:29.733Z,17.00
2023-05-17T18:50:57.460Z,16.80
2023-05-17T18:53:24.407Z,16.70
2023-05-17T18:55:53.860Z,16.60
2023-05-17T18:58:20.568Z,16.50
2023-05-17T19:00:48.502Z,16.40
2023-05-17T19:03:15.806Z,16.30
2023-05-17T19:05:45.760Z,16.20
2023-05-17T19:08:12.803Z,16.00
2023-05-17T19:10:39.708Z,16.00
2023-05-17T19:13:06.741Z,15.90
2023-05-17T19:15:33.707Z,15.70
2023-05-17T19:18:02.775Z,15.60
2023-05-17T19:20:29.752Z,15.50
2023-05-17T19:22:56.636Z,15.50
2023-05-17T19:25:23.696Z,15.40
2023-05-17T19:27:50.451Z,15.30
2023-05-17T19:30:17.254Z,15.20
2023-05-17T19:32:44.148Z,15.10
2023-05-17T19:35:11.250Z,15.00
2023-05-17T19:37:40.243Z,14.90
2023-05-17T19:40:07.677Z,14.90
2023-05-17T19:42:34.502Z,14.80
2023-05-17T19:45:03.602Z,14.80
2023-05-17T19:47:31.193Z,14.70
2023-05-17T19:49:58.201Z,14.60
2023-05-17T19:52:25.023Z,14.50
2023-05-17T19:54:51.792Z,14.50
2023-05-17T19:57:18.514Z,14.40
2023-05-17T19:59:45.588Z,14.40
2023-05-17T20:02:14.931Z,14.30
2023-05-17T20:04:43.849Z,14.20
2023-05-17T20:07:10.783Z,14.10
2023-05-17T20:09:38.417Z,14.00
2023-05-17T20:12:05.638Z,14.00
2023-05-17T20:14:32.418Z,13.90
2023-05-17T20:16:59.243Z,13.90
2023-05-17T20:19:26.332Z,13.80
2023-05-17T20:21:53.235Z,13.80
2023-05-17T20:24:24.778Z,13.70
2023-05-17T20:26:51.642Z,13.70
2023-05-17T20:29:18.400Z,13.60
2023-05-17T20:31:45.106Z,13.60
2023-05-17T20:34:12.048Z,13.50
2023-05-17T20:36:38.844Z,13.50
2023-05-17T20:39:05.585Z,13.40
2023-05-17T20:41:32.264Z,13.40
2023-05-17T20:44:01.653Z,13.40
2023-05-17T20:46:31.802Z,13.40
2023-05-17T20:48:59.072Z,13.30
2023-05-17T20:51:28.432Z,13.30
2023-05-17T20:53:55.178Z,13.20
2023-05-17T20:56:22.010Z,13.00
2023-05-17T20:58:49.016Z,12.90
2023-05-17T21:01:15.867Z,12.80
2023-05-17T21:03:48.203Z,12.60
2023-05-17T21:06:17.211Z,12.50
2023-05-17T21:08:43.950Z,12.40
2023-05-17T21:11:10.764Z,12.30
2023-05-17T21:13:37.830Z,12.30
2023-05-17T21:16:04.776Z,12.30
2023-05-17T21:18:31.654Z,12.20
2023-05-17T21:20:58.968Z,12.20
2023-05-17T21:23:25.785Z,12.20
2023-05-17T21:25:52.562Z,12.20
2023-05-17T21:28:19.322Z,12.10
2023-05-17T21:30:46.024Z,12.10
2023-05-17T21:33:12.892Z,12.10
2023-05-17T21:35:39.757Z,12.10
2023-05-17T21:38:09.283Z,12.00
2023-05-17T21:40:36.265Z,12.00
2023-05-17T21:43:03.051Z,12.00
2023-05-17T21:45:29.967Z,11.90
2023-05-17T21:47:56.690Z,11.90
2023-05-17T21:50:23.694Z,11.90
2023-05-17T21:52:50.683Z,11.90
2023-05-17T21:55:17.578Z,11.90
2023-05-17T21:57:44.435Z,11.90
2023-05-17T22:00:12.914Z,11.80
2023-05-17T22:02:42.934Z,11.80
2023-05-17T22:05:10.331Z,11.70
2023-05-17T22:07:37.449Z,11.70
2023-05-17T22:10:07.279Z,11.70
2023-05-17T22:12:36.122Z,11.70
2023-05-17T22:15:03.121Z,11.60
2023-05-17T22:17:42.605Z,11.60
2023-05-17T22:20:16.900Z,11.60
2023-05-17T22:22:44.004Z,11.60
2023-05-17T22:25:10.951Z,11.50
2023-05-17T22:27:40.142Z,11.50
2023-05-17T22:30:07.800Z,11.50
2023-05-17T22:32:37.325Z,11.50
2023-05-17T22:35:04.648Z,11.40
2023-05-17T22:37:32.995Z,11.40
2023-05-17T22:39:59.800Z,11.40
2023-05-17T22:42:28.974Z,11.30
2023-05-17T22:44:55.742Z,11.30
2023-05-17T22:47:23.280Z,11.20
2023-05-17T22:49:52.473Z,11.20
2023-05-17T22:52:19.823Z,11.10
2023-05-17T22:54:46.677Z,11.10
2023-05-17T22:57:14.159Z,11.10
2023-05-17T22:59:43.969Z,11.00
2023-05-17T23:02:12.261Z,11.00
2023-05-17T23:04:40.216Z,11.00
2023-05-17T23:07:09.816Z,10.90
2023-05-17T23:09:38.772Z,10.90
2023-05-17T23:12:06.423Z,10.80
2023-05-17T23:14:36.559Z,10.80
2023-05-17T23:17:04.185Z,10.80
2023-05-17T23:19:31.987Z,10.80
2023-05-17T23:22:03.152Z,10.80
2023-05-17T23:24:30.117Z,10.80
2023-05-17T23:26:57.593Z,10.80
2023-05-17T23:29:25.865Z,10.70
2023-05-17T23:31:53.553Z,10.70
2023-05-17T23:34:20.941Z,10.70
2023-05-17T23:36:47.748Z,10.70
2023-05-17T23:39:14.464Z,10.70
2023-05-17T23:41:42.947Z,10.70
2023-05-17T23:44:09.813Z,10.70
2023-05-17T23:46:36.643Z,10.60
2023-05-17T23:49:05.841Z,10.60
2023-05-17T23:51:34.661Z,10.60
2023-05-17T23:54:01.756Z,10.60
2023-05-17T23:56:28.873Z,10.60
2023-05-17T23:58:55.971Z,10.60
